Main page
METAR-TAF:

METAR-TAF

Airports :

RAF Odiham

Odiham, England

latitude: 51-14N, longitude: 000-57W, elevation: 123 m

Current weather observation

The report was made 43 minutes ago, at 02:50 UTC
Wind 6 kt from the East/Northeast
Temperature 16°C
Humidity 94%
Pressure 1015 hPa
Visibility: 3400 m
mist

METAR: EGVO 270250Z AUTO 06006KT 3400 BR SCT007/// 16/15 Q1015

Time: 04:33 (03:33 UTC)

Forecast

The report was made 13 hours and 37 minutes ago, at 13:56 UTC
Forecast valid from 25 at 15 UTC to 26 at 03 UTC
Wind 5 kt from the North/Northwest
Visibility: 7000 m
Broken clouds at a height of 800 ft
haze
Becoming
from 25 at 15 UTC to 25 at 17 UTC
Visibility: 9000 m
Broken clouds at a height of 2500 ft
Temporary
from 25 at 17 UTC to 25 at 24 UTC
Broken clouds at a height of 1500 ft
Becoming
from 26 at 00 UTC to 26 at 03 UTC
Visibility: 4000 m
mist

TAF: EGVO 251356Z 2515/2603 33005KT 7000 HZ BKN008 BECMG 2515/2517 9000 BKN025 TEMPO 2517/2524 BKN015 BECMG 2600/2603 4000 BR

Weather observations and forecasts of more than 4000 airports (METAR and TAF reports).

The available stations are represented by yellow and red dots on the map.

Hover mouse over dot to see the name of the station.

Then click to see weather observations and forecasts.

To change the map : click on the green buttons with a black cross to zoom in, on the green button with a dash to zoom out, or on the green arrows for adjacent maps.


METAR-TAF: